Time;durP1;ratioP1;P1;durP2;ratioP2;P2;SDS_P1;SDS_P2;PMS_P1;PMS_P2;Temp;Humidity;BMP_temperature;BMP_pressure;BME280_temperature;BME280_humidity;BME280_pressure;Samples;Min_cycle;Max_cycle;Signal;HPM_P1;HPM_P2
2022/06/25 00:02:07;;;;;;;3.08;0.30;;;21.50;90.40;;;;;;5051663;28;20028;-77
2022/06/25 00:07:19;;;;;;;1.00;0.52;;;21.60;89.70;;;;;;5037217;28;20148;-78
2022/06/25 00:09:47;;;;;;;1.23;0.40;;;21.50;90.00;;;;;;5032295;28;20036;-76
2022/06/25 00:12:32;;;;;;;0.68;0.40;;;21.50;90.00;;;;;;5039748;28;20034;-77
2022/06/25 00:15:03;;;;;;;1.40;0.40;;;22.00;89.20;;;;;;5032754;28;20372;-77
2022/06/25 00:17:31;;;;;;;1.58;0.40;;;22.60;87.90;;;;;;5033643;28;20029;-77
2022/06/25 00:19:58;;;;;;;0.73;0.35;;;22.70;88.20;;;;;;5058755;28;20037;-78
2022/06/25 00:22:26;;;;;;;1.67;0.40;;;22.80;87.60;;;;;;5042761;28;20038;-78
2022/06/25 00:24:53;;;;;;;0.93;0.60;;;22.60;87.70;;;;;;5048804;28;20021;-77
2022/06/25 00:27:21;;;;;;;1.20;0.40;;;22.70;87.50;;;;;;5040208;28;20033;-78
2022/06/25 00:29:48;;;;;;;1.23;0.30;;;22.90;87.30;;;;;;5037771;28;20399;-77
2022/06/25 00:32:16;;;;;;;2.75;0.52;;;23.10;86.90;;;;;;5041875;28;20044;-78
2022/06/25 00:34:43;;;;;;;3.35;0.70;;;23.10;87.60;;;;;;5050777;28;20025;-79
2022/06/25 00:37:11;;;;;;;2.20;0.43;;;23.10;86.80;;;;;;5046002;28;20029;-76
2022/06/25 00:39:39;;;;;;;1.65;0.30;;;23.60;85.90;;;;;;5034639;28;20475;-76
2022/06/25 00:42:11;;;;;;;0.85;0.40;;;23.90;85.00;;;;;;5042666;28;20037;-78
2022/06/25 00:44:39;;;;;;;0.95;0.30;;;24.10;84.80;;;;;;5047532;28;20032;-78
2022/06/25 00:47:11;;;;;;;0.43;0.20;;;24.60;84.00;;;;;;5044821;28;20056;-77
2022/06/25 00:49:39;;;;;;;0.65;0.30;;;25.00;83.50;;;;;;5039883;28;20479;-77
2022/06/25 00:52:15;;;;;;;0.90;0.20;;;25.70;82.20;;;;;;5050483;28;20064;-77
2022/06/25 00:54:48;;;;;;;0.68;0.30;;;25.90;80.80;;;;;;5037230;28;20026;-77
2022/06/25 00:57:21;;;;;;;1.38;0.25;;;25.90;80.30;;;;;;5047059;28;20029;-77
2022/06/25 00:59:50;;;;;;;3.30;0.45;;;25.50;80.00;;;;;;5036268;28;20049;-78
2022/06/25 01:02:20;;;;;;;0.65;0.20;;;25.70;80.10;;;;;;5040139;28;22079;-76
2022/06/25 01:04:49;;;;;;;0.68;0.20;;;25.80;79.80;;;;;;5058092;28;20104;-77
2022/06/25 01:07:18;;;;;;;0.98;0.32;;;25.70;80.10;;;;;;5030377;28;20071;-78
2022/06/25 01:09:49;;;;;;;1.05;0.30;;;26.10;79.90;;;;;;5055903;28;20029;-78
2022/06/25 01:12:17;;;;;;;0.20;0.20;;;26.20;78.90;;;;;;5040800;28;20029;-80
2022/06/25 01:14:44;;;;;;;0.85;0.40;;;25.90;79.50;;;;;;5032045;28;20371;-76
2022/06/25 01:17:13;;;;;;;0.30;0.20;;;26.10;80.10;;;;;;5041225;28;20467;-75
2022/06/25 01:19:41;;;;;;;0.30;0.20;;;26.60;79.40;;;;;;5034333;28;20064;-75
2022/06/25 01:22:08;;;;;;;0.32;0.25;;;27.20;77.10;;;;;;5046365;28;20483;-75
2022/06/25 01:24:36;;;;;;;0.32;0.20;;;27.20;77.00;;;;;;5044053;28;20146;-74
2022/06/25 01:27:14;;;;;;;2.40;0.30;;;26.70;78.70;;;;;;5056828;28;20120;-73
2022/06/25 01:29:41;;;;;;;0.30;0.15;;;27.20;78.10;;;;;;5035224;28;20037;-74
2022/06/25 01:32:12;;;;;;;0.73;0.20;;;27.70;76.40;;;;;;5048690;28;20140;-74
2022/06/25 01:34:39;;;;;;;0.73;0.20;;;28.20;78.30;;;;;;5049735;28;20037;-73
2022/06/25 01:37:07;;;;;;;0.35;0.20;;;28.70;77.40;;;;;;5045395;28;20029;-74
2022/06/25 01:39:34;;;;;;;1.98;0.43;;;28.60;75.20;;;;;;5033580;28;20120;-75
2022/06/25 01:42:02;;;;;;;0.75;0.30;;;27.80;75.40;;;;;;5031960;28;20040;-73
2022/06/25 01:44:29;;;;;;;0.40;0.20;;;27.80;75.90;;;;;;5031961;28;20037;-74
2022/06/25 01:46:57;;;;;;;0.50;0.30;;;28.10;75.30;;;;;;5030992;28;20052;-77
2022/06/25 01:49:24;;;;;;;0.50;0.38;;;27.70;74.80;;;;;;5031135;28;20017;-76
2022/06/25 01:51:51;;;;;;;0.55;0.10;;;27.60;75.80;;;;;;5029863;28;20041;-75
2022/06/25 01:54:19;;;;;;;0.60;0.30;;;27.80;74.30;;;;;;5030464;28;20029;-73
2022/06/25 01:56:46;;;;;;;1.13;0.35;;;28.10;74.30;;;;;;5036711;28;20338;-74
2022/06/25 01:59:13;;;;;;;0.40;0.30;;;27.70;76.40;;;;;;5035908;28;20026;-73
2022/06/25 02:01:41;;;;;;;1.30;0.20;;;28.30;75.80;;;;;;5046190;28;20461;-74
2022/06/25 02:04:08;;;;;;;0.45;0.28;;;27.70;75.60;;;;;;5033931;28;20336;-76
2022/06/25 02:06:36;;;;;;;4.72;0.45;;;28.00;76.20;;;;;;5055223;28;20047;-75
2022/06/25 02:09:04;;;;;;;0.20;0.20;;;28.40;75.60;;;;;;5044024;28;20025;-75
2022/06/25 02:11:31;;;;;;;0.35;0.35;;;29.10;75.40;;;;;;5047216;28;20479;-75
2022/06/25 02:13:58;;;;;;;0.40;0.10;;;29.50;73.70;;;;;;5040356;28;20036;-74
2022/06/25 02:16:26;;;;;;;1.60;0.30;;;29.60;73.50;;;;;;5033258;28;20082;-76
2022/06/25 02:18:53;;;;;;;1.63;0.30;;;28.90;73.70;;;;;;5035826;28;20030;-75
2022/06/25 02:21:20;;;;;;;1.85;0.30;;;28.90;73.80;;;;;;5039867;28;20509;-75
2022/06/25 02:23:48;;;;;;;0.20;0.20;;;28.90;72.70;;;;;;5031200;28;20191;-75
2022/06/25 02:26:15;;;;;;;1.02;0.40;;;29.00;72.50;;;;;;5032510;28;20041;-75
2022/06/25 02:28:42;;;;;;;1.27;0.22;;;29.00;71.80;;;;;;5049632;28;20029;-73
2022/06/25 02:31:09;;;;;;;1.98;0.17;;;29.20;74.10;;;;;;5047779;28;20096;-74
2022/06/25 02:33:37;;;;;;;0.38;0.17;;;28.80;72.30;;;;;;5046669;28;20041;-76
2022/06/25 02:36:05;;;;;;;1.05;0.30;;;28.70;72.50;;;;;;5036140;28;20017;-76
2022/06/25 02:38:32;;;;;;;0.50;0.30;;;28.40;72.90;;;;;;5030410;28;20037;-76
2022/06/25 02:40:59;;;;;;;0.57;0.20;;;28.00;72.90;;;;;;5031799;28;20034;-76
2022/06/25 02:43:27;;;;;;;0.30;0.20;;;28.10;73.00;;;;;;5054371;28;20112;-74
2022/06/25 02:45:54;;;;;;;0.45;0.20;;;27.20;73.00;;;;;;5049093;28;20047;-74
2022/06/25 02:48:21;;;;;;;0.93;0.20;;;26.70;73.80;;;;;;5054245;28;20036;-75
2022/06/25 02:50:49;;;;;;;0.30;0.20;;;26.80;74.80;;;;;;5034529;28;20467;-73
2022/06/25 02:53:16;;;;;;;0.98;0.30;;;26.10;73.80;;;;;;5038309;28;20090;-75
2022/06/25 03:01:14;;;;;;;0.20;0.10;;;26.00;78.70;;;;;;5029841;28;20131;-74
2022/06/25 03:03:42;;;;;;;1.73;0.30;;;26.30;76.40;;;;;;5035716;28;20069;-72
2022/06/25 03:06:09;;;;;;;0.40;0.13;;;26.40;75.40;;;;;;5031161;28;20087;-73
2022/06/25 03:08:36;;;;;;;0.25;0.20;;;26.50;75.70;;;;;;5036233;28;20025;-74
2022/06/25 03:11:04;;;;;;;0.40;0.20;;;26.30;75.60;;;;;;5037277;28;20029;-75
2022/06/25 03:13:34;;;;;;;0.22;0.10;;;26.40;76.00;;;;;;5030886;28;20055;-74
2022/06/25 03:16:05;;;;;;;1.33;0.60;;;26.10;77.10;;;;;;5031655;28;20038;-73
2022/06/25 03:18:36;;;;;;;0.38;0.22;;;26.00;77.80;;;;;;5028986;28;20459;-75
2022/06/25 03:21:04;;;;;;;2.17;0.25;;;25.80;76.30;;;;;;5029713;28;20128;-75
2022/06/25 03:23:32;;;;;;;1.23;0.20;;;25.70;77.10;;;;;;5029589;28;20748;-73
2022/06/25 03:26:00;;;;;;;0.10;0.10;;;25.20;77.80;;;;;;5029065;28;20460;-73
2022/06/25 03:28:27;;;;;;;1.45;0.40;;;25.10;78.20;;;;;;5028812;28;20026;-73
2022/06/25 03:30:54;;;;;;;0.15;0.10;;;25.00;78.50;;;;;;5032886;28;20028;-74
2022/06/25 03:33:22;;;;;;;0.40;0.15;;;24.80;77.50;;;;;;5028310;28;20387;-75
2022/06/25 03:35:49;;;;;;;1.33;0.45;;;24.20;78.30;;;;;;5033169;28;20033;-74
2022/06/25 03:38:16;;;;;;;0.10;0.10;;;23.70;80.10;;;;;;5028453;28;20036;-72
2022/06/25 03:40:44;;;;;;;0.80;0.20;;;23.30;80.70;;;;;;5032463;28;20394;-74
2022/06/25 03:43:11;;;;;;;0.60;0.47;;;22.90;81.80;;;;;;5032351;28;20078;-74
2022/06/25 03:45:38;;;;;;;0.50;0.30;;;22.50;82.90;;;;;;5040876;28;20036;-76
2022/06/25 03:48:06;;;;;;;0.55;0.30;;;22.30;83.20;;;;;;5032523;28;20424;-74
2022/06/25 03:50:34;;;;;;;0.80;0.30;;;22.00;84.20;;;;;;5033076;28;20443;-74
2022/06/25 03:53:02;;;;;;;1.10;0.30;;;21.80;83.40;;;;;;5034685;28;20450;-73
2022/06/25 03:55:29;;;;;;;0.80;0.20;;;21.70;84.50;;;;;;5033820;28;20025;-74
2022/06/25 03:57:57;;;;;;;0.45;0.20;;;21.50;84.70;;;;;;5035474;28;20029;-73
2022/06/25 04:00:24;;;;;;;0.30;0.20;;;21.40;85.40;;;;;;5032700;28;20474;-74
2022/06/25 04:02:52;;;;;;;0.60;0.10;;;21.30;85.00;;;;;;5034483;28;20037;-75
2022/06/25 04:05:19;;;;;;;0.20;0.20;;;21.20;85.50;;;;;;5033465;28;20425;-74
2022/06/25 04:07:46;;;;;;;1.20;0.30;;;21.00;84.90;;;;;;5034763;28;20059;-75
2022/06/25 04:10:14;;;;;;;1.27;0.47;;;20.90;85.10;;;;;;5036079;28;20324;-73
2022/06/25 04:12:41;;;;;;;0.57;0.10;;;21.00;85.00;;;;;;5034039;28;20029;-74
2022/06/25 04:15:09;;;;;;;0.40;0.30;;;20.90;84.90;;;;;;5041964;28;20036;-75
2022/06/25 04:17:37;;;;;;;0.60;0.10;;;20.80;85.10;;;;;;5056425;28;20072;-73
2022/06/25 04:20:05;;;;;;;0.15;0.10;;;20.90;84.90;;;;;;5037711;28;20475;-76
2022/06/25 04:22:32;;;;;;;0.40;0.30;;;20.80;85.90;;;;;;5036605;28;20063;-74
2022/06/25 04:24:59;;;;;;;0.20;0.00;;;20.80;84.90;;;;;;5048078;28;20074;-74
2022/06/25 04:30:12;;;;;;;0.55;0.17;;;20.60;85.60;;;;;;5035686;28;20380;-75
2022/06/25 04:32:39;;;;;;;0.30;0.10;;;20.50;86.80;;;;;;5039838;28;20047;-76
2022/06/25 04:35:07;;;;;;;0.32;0.10;;;20.30;86.20;;;;;;5041945;28;20067;-74
2022/06/25 04:37:35;;;;;;;2.83;0.10;;;20.30;86.30;;;;;;5039918;28;20043;-74
2022/06/25 04:40:02;;;;;;;0.68;0.28;;;20.20;86.90;;;;;;5044907;28;20082;-74
2022/06/25 04:42:29;;;;;;;2.35;0.43;;;20.20;86.70;;;;;;5053583;28;20046;-73
2022/06/25 04:44:57;;;;;;;0.10;0.10;;;20.10;86.90;;;;;;5058688;28;20025;-74
2022/06/25 04:47:24;;;;;;;1.10;0.17;;;20.00;87.20;;;;;;5048326;28;20036;-74
2022/06/25 04:49:52;;;;;;;0.90;0.10;;;20.00;86.80;;;;;;5056432;28;20082;-74
2022/06/25 04:52:19;;;;;;;0.38;0.15;;;19.90;87.40;;;;;;5047963;28;20159;-73
2022/06/25 04:54:47;;;;;;;0.32;0.10;;;19.90;87.90;;;;;;5057784;28;20054;-75
2022/06/25 04:57:14;;;;;;;0.17;0.08;;;19.80;88.10;;;;;;5041977;28;20032;-74
2022/06/25 04:59:42;;;;;;;0.82;0.63;;;19.80;87.80;;;;;;5038111;28;20549;-74
2022/06/25 05:02:09;;;;;;;0.38;0.20;;;19.80;88.30;;;;;;5048934;28;20044;-74
2022/06/25 05:04:36;;;;;;;0.40;0.15;;;19.70;88.50;;;;;;5045432;28;20033;-74
2022/06/25 05:07:04;;;;;;;0.20;0.08;;;19.80;88.60;;;;;;5041682;28;20439;-75
2022/06/25 05:09:31;;;;;;;1.77;0.88;;;19.80;88.90;;;;;;5047220;28;20071;-73
2022/06/25 05:11:58;;;;;;;5.97;3.60;;;19.70;88.50;;;;;;5045930;28;20099;-74
2022/06/25 05:14:26;;;;;;;4.47;2.60;;;19.70;88.30;;;;;;5049881;28;20029;-75
2022/06/25 05:16:54;;;;;;;0.60;0.50;;;19.80;88.50;;;;;;5039960;28;20894;-74
2022/06/25 05:19:22;;;;;;;1.90;0.90;;;19.70;88.40;;;;;;5033297;28;20037;-72
2022/06/25 05:21:49;;;;;;;3.00;1.65;;;19.70;88.30;;;;;;5034318;28;20051;-75
2022/06/25 05:24:17;;;;;;;4.78;3.38;;;19.70;87.80;;;;;;5043164;28;20128;-77
2022/06/25 05:26:44;;;;;;;3.40;1.63;;;19.70;88.00;;;;;;5031923;28;20724;-75
2022/06/25 05:29:11;;;;;;;5.30;3.70;;;19.60;88.40;;;;;;5038701;28;20040;-74
2022/06/25 05:31:39;;;;;;;2.65;1.83;;;19.60;88.80;;;;;;5044534;28;20033;-74
2022/06/25 05:34:06;;;;;;;1.23;0.70;;;19.50;89.50;;;;;;5035120;28;20025;-75
2022/06/25 05:36:33;;;;;;;0.98;0.80;;;19.60;89.50;;;;;;5049372;28;20052;-75
2022/06/25 05:39:01;;;;;;;0.68;0.40;;;19.70;89.40;;;;;;5053835;28;20546;-74
2022/06/25 05:41:28;;;;;;;3.05;1.73;;;19.70;88.40;;;;;;5047837;28;20044;-74
2022/06/25 05:43:55;;;;;;;7.70;4.45;;;19.70;88.70;;;;;;5047263;28;20090;-77
2022/06/25 05:46:22;;;;;;;3.60;2.25;;;19.70;88.80;;;;;;5041090;28;20043;-77
2022/06/25 05:48:50;;;;;;;4.85;3.65;;;19.60;88.70;;;;;;5034694;28;20013;-76
2022/06/25 05:51:17;;;;;;;4.93;0.60;;;19.60;89.30;;;;;;5035619;28;20048;-77
2022/06/25 05:53:44;;;;;;;2.00;0.30;;;19.50;89.00;;;;;;5049212;28;20364;-78
2022/06/25 05:56:12;;;;;;;0.85;0.30;;;19.40;89.30;;;;;;5049864;28;20436;-78
2022/06/25 05:58:39;;;;;;;0.30;0.10;;;19.40;89.60;;;;;;5048636;28;20086;-78
2022/06/25 06:01:06;;;;;;;1.02;0.20;;;19.30;89.80;;;;;;5036962;28;20042;-78
2022/06/25 06:03:34;;;;;;;0.47;0.20;;;19.20;90.30;;;;;;5047939;28;20021;-78
2022/06/25 06:06:01;;;;;;;1.45;0.50;;;19.10;90.30;;;;;;5035814;28;20028;-77
2022/06/25 06:08:28;;;;;;;0.90;0.43;;;18.90;90.50;;;;;;5049474;28;20474;-78
2022/06/25 06:10:59;;;;;;;0.55;0.30;;;18.80;90.70;;;;;;5040090;28;20478;-77
2022/06/25 06:13:26;;;;;;;1.15;0.32;;;18.70;91.10;;;;;;5040069;28;20044;-78
2022/06/25 06:15:53;;;;;;;2.15;0.30;;;18.60;91.10;;;;;;5049791;28;20032;-77
2022/06/25 06:18:21;;;;;;;1.85;0.50;;;18.50;91.30;;;;;;5041171;28;20044;-78
2022/06/25 06:20:48;;;;;;;2.03;0.70;;;18.40;91.30;;;;;;5039398;28;20048;-78
2022/06/25 06:23:15;;;;;;;2.05;1.13;;;18.20;91.40;;;;;;5049836;28;20036;-76
2022/06/25 06:25:43;;;;;;;1.08;0.50;;;18.10;91.00;;;;;;5052748;28;20025;-77
2022/06/25 06:28:10;;;;;;;1.30;0.50;;;18.00;91.00;;;;;;5029158;28;20025;-78
2022/06/25 06:30:37;;;;;;;1.02;0.40;;;17.90;91.30;;;;;;5044731;28;20021;-75
2022/06/25 06:33:05;;;;;;;0.55;0.30;;;17.80;91.20;;;;;;5038979;28;20029;-77
2022/06/25 06:35:32;;;;;;;1.90;0.45;;;17.70;91.30;;;;;;5050292;28;20017;-78
2022/06/25 06:37:59;;;;;;;1.17;0.47;;;17.70;91.20;;;;;;5027066;28;20108;-78
2022/06/25 06:40:27;;;;;;;0.70;0.55;;;17.60;91.70;;;;;;5052712;28;20467;-78
2022/06/25 06:42:57;;;;;;;1.95;0.70;;;17.50;92.10;;;;;;5055476;28;20048;-79
2022/06/25 06:45:25;;;;;;;2.72;0.90;;;17.40;92.10;;;;;;5053608;28;20450;-79
2022/06/25 06:47:52;;;;;;;2.88;0.98;;;17.30;92.30;;;;;;5032211;28;20037;-77
2022/06/25 06:50:19;;;;;;;2.35;1.13;;;17.20;92.20;;;;;;5033687;28;20029;-76
2022/06/25 06:52:47;;;;;;;2.58;1.42;;;17.00;92.30;;;;;;5036774;28;20136;-76
2022/06/25 06:55:14;;;;;;;2.25;0.70;;;16.90;92.50;;;;;;5049533;28;20032;-77
2022/06/25 06:57:41;;;;;;;2.88;1.00;;;16.90;92.30;;;;;;5054225;28;20343;-77
2022/06/25 07:00:09;;;;;;;1.65;0.90;;;16.80;92.50;;;;;;5049718;28;20433;-77
2022/06/25 07:02:37;;;;;;;1.20;0.70;;;16.80;93.00;;;;;;5051063;28;20039;-77
2022/06/25 07:05:04;;;;;;;3.45;0.85;;;16.70;93.00;;;;;;5030029;28;20021;-78
2022/06/25 07:07:32;;;;;;;1.38;0.70;;;16.60;92.80;;;;;;5042521;28;20025;-78
2022/06/25 07:09:59;;;;;;;2.03;1.25;;;16.50;93.10;;;;;;5045963;28;20020;-76
2022/06/25 07:12:28;;;;;;;4.28;3.75;;;16.30;93.30;;;;;;5034795;28;20029;-76
2022/06/25 07:14:55;;;;;;;3.55;3.17;;;16.20;93.10;;;;;;5032404;28;20053;-77
2022/06/25 07:17:22;;;;;;;4.22;2.95;;;16.10;93.30;;;;;;5036892;28;20025;-76
2022/06/25 07:19:52;;;;;;;2.47;1.90;;;16.00;93.40;;;;;;5035528;28;20033;-77
2022/06/25 07:22:19;;;;;;;3.25;2.33;;;16.00;93.20;;;;;;5034113;28;20040;-78
2022/06/25 07:24:46;;;;;;;5.05;2.10;;;16.00;93.50;;;;;;5036026;28;20033;-77
2022/06/25 07:27:14;;;;;;;3.13;2.40;;;15.90;94.10;;;;;;5035383;28;20051;-77
2022/06/25 07:29:41;;;;;;;3.35;2.30;;;15.90;94.60;;;;;;5032084;28;20029;-79
2022/06/25 07:32:09;;;;;;;3.78;1.58;;;15.70;95.10;;;;;;5036469;28;20481;-78
2022/06/25 07:34:36;;;;;;;3.78;2.10;;;15.50;95.60;;;;;;5039061;28;20034;-76
2022/06/25 07:37:04;;;;;;;6.50;2.38;;;15.40;96.20;;;;;;5037507;28;20471;-77
2022/06/25 07:39:31;;;;;;;12.60;7.63;;;15.20;96.10;;;;;;5044791;28;20181;-77
2022/06/25 07:42:00;;;;;;;8.63;6.85;;;15.10;96.30;;;;;;5046515;28;20159;-77
2022/06/25 07:44:28;;;;;;;9.15;7.28;;;15.00;96.50;;;;;;5044825;28;20093;-76
2022/06/25 07:46:55;;;;;;;7.43;5.78;;;14.80;96.70;;;;;;5044440;28;20148;-77
2022/06/25 07:49:26;;;;;;;7.65;5.28;;;14.70;97.00;;;;;;5038465;28;20093;-76
2022/06/25 07:52:03;;;;;;;8.63;5.13;;;14.60;97.10;;;;;;5061613;28;20053;-75
2022/06/25 07:54:33;;;;;;;6.55;4.05;;;14.60;97.20;;;;;;5048287;28;20472;-76
2022/06/25 07:57:00;;;;;;;5.70;3.85;;;14.60;97.40;;;;;;5029833;28;20160;-76
2022/06/25 07:59:28;;;;;;;4.80;3.58;;;14.50;97.50;;;;;;5040268;28;20406;-77
2022/06/25 08:01:55;;;;;;;5.97;3.50;;;14.50;97.50;;;;;;5050241;28;20025;-77
2022/06/25 08:04:23;;;;;;;4.97;3.97;;;14.40;97.70;;;;;;5050211;28;20040;-77
2022/06/25 08:06:50;;;;;;;5.25;4.03;;;14.40;97.90;;;;;;5043398;28;20018;-77
2022/06/25 08:09:17;;;;;;;7.13;3.92;;;14.40;98.10;;;;;;5035847;28;20029;-77
2022/06/25 08:11:45;;;;;;;5.38;3.42;;;14.50;98.20;;;;;;5036996;28;20047;-78
2022/06/25 08:14:12;;;;;;;6.03;5.03;;;14.50;98.30;;;;;;5036027;28;20087;-77
2022/06/25 08:16:39;;;;;;;5.80;4.57;;;14.60;98.20;;;;;;5043185;28;20030;-77
2022/06/25 08:19:07;;;;;;;13.13;5.78;;;14.70;97.50;;;;;;5057522;28;20075;-77
2022/06/25 08:21:34;;;;;;;6.88;4.63;;;14.80;97.00;;;;;;5033883;28;20029;-77
2022/06/25 08:24:02;;;;;;;5.47;3.90;;;14.80;96.80;;;;;;5033950;28;20025;-76
2022/06/25 08:26:29;;;;;;;6.03;4.03;;;14.80;96.70;;;;;;5042787;28;20120;-76
2022/06/25 08:28:56;;;;;;;5.20;4.32;;;14.80;97.00;;;;;;5040923;28;20074;-77
2022/06/25 08:31:24;;;;;;;4.05;3.45;;;14.70;96.90;;;;;;5043943;28;20481;-77
2022/06/25 08:33:51;;;;;;;5.00;3.50;;;14.70;97.50;;;;;;5051812;28;20688;-78
2022/06/25 08:36:18;;;;;;;4.63;3.28;;;14.60;97.50;;;;;;5042557;28;20095;-76
2022/06/25 08:38:46;;;;;;;4.68;3.08;;;14.50;97.20;;;;;;5051005;28;20379;-76
2022/06/25 08:41:14;;;;;;;5.60;2.72;;;14.50;97.30;;;;;;5050043;28;20120;-78
2022/06/25 08:43:41;;;;;;;8.05;4.75;;;14.30;97.60;;;;;;5053789;28;20032;-78
2022/06/25 08:46:09;;;;;;;14.65;8.75;;;14.30;97.80;;;;;;5041904;28;20139;-78
2022/06/25 08:48:37;;;;;;;24.55;12.13;;;14.20;98.00;;;;;;5031216;28;20344;-78
2022/06/25 08:51:05;;;;;;;25.13;14.95;;;14.10;98.20;;;;;;5049457;28;20044;-78
2022/06/25 08:53:34;;;;;;;24.45;14.35;;;14.00;98.40;;;;;;5036869;28;20033;-78
2022/06/25 08:56:02;;;;;;;27.08;14.30;;;13.80;98.40;;;;;;5048485;28;20036;-77
2022/06/25 08:58:30;;;;;;;20.88;12.88;;;13.70;98.60;;;;;;5031768;28;20034;-76
2022/06/25 09:00:57;;;;;;;26.90;14.93;;;13.60;98.60;;;;;;5041996;28;20041;-78
2022/06/25 09:03:25;;;;;;;27.42;15.68;;;13.50;98.70;;;;;;5059313;28;20488;-78
2022/06/25 09:05:53;;;;;;;24.13;16.15;;;13.50;98.60;;;;;;5039178;28;20110;-76
2022/06/25 09:08:23;;;;;;;39.58;22.05;;;13.40;98.80;;;;;;5055233;28;20467;-77
2022/06/25 09:10:55;;;;;;;43.80;23.08;;;13.30;98.80;;;;;;5042071;28;20056;-76
2022/06/25 09:13:25;;;;;;;39.50;22.48;;;13.30;98.90;;;;;;5049354;28;20381;-78
2022/06/25 09:15:53;;;;;;;36.30;19.05;;;13.30;98.90;;;;;;5051666;28;20021;-77
2022/06/25 09:18:20;;;;;;;30.02;15.93;;;13.30;99.20;;;;;;5034250;28;20029;-76
2022/06/25 09:21:01;;;;;;;25.73;14.85;;;13.20;99.10;;;;;;5050536;28;20295;-77
2022/06/25 09:23:31;;;;;;;24.15;13.43;;;13.10;99.60;;;;;;5049918;28;20040;-76
2022/06/25 09:26:12;;;;;;;15.27;9.18;;;13.10;99.60;;;;;;5048058;28;20073;-78
2022/06/25 09:28:41;;;;;;;11.40;7.32;;;13.00;99.30;;;;;;5043069;28;20120;-77
2022/06/25 09:31:09;;;;;;;15.55;8.75;;;13.10;99.20;;;;;;5048508;28;20043;-78
2022/06/25 09:33:39;;;;;;;12.23;9.55;;;13.10;99.20;;;;;;5037920;28;20378;-77
2022/06/25 09:36:10;;;;;;;21.13;13.00;;;13.10;99.00;;;;;;5045812;28;20029;-78
2022/06/25 09:38:51;;;;;;;21.63;14.80;;;13.10;99.10;;;;;;5039229;28;20029;-78
2022/06/25 09:41:18;;;;;;;21.95;15.23;;;13.00;99.10;;;;;;5060474;28;20040;-79
2022/06/25 09:43:48;;;;;;;22.85;15.20;;;13.00;99.60;;;;;;5047486;28;20029;-79
2022/06/25 09:46:16;;;;;;;32.03;21.50;;;12.90;99.60;;;;;;5033772;28;20029;-78
2022/06/25 09:48:44;;;;;;;32.85;22.90;;;12.80;99.70;;;;;;5038588;28;20018;-78
2022/06/25 09:51:15;;;;;;;29.55;19.35;;;12.70;99.90;;;;;;5041770;28;20431;-81
2022/06/25 09:53:54;;;;;;;32.63;19.60;;;12.60;99.90;;;;;;5043264;28;20033;-79
2022/06/25 09:56:23;;;;;;;17.75;12.98;;;12.50;99.90;;;;;;5033122;28;20055;-79
2022/06/25 09:58:53;;;;;;;17.85;12.65;;;12.50;99.90;;;;;;5044344;28;20039;-78
2022/06/25 10:01:23;;;;;;;15.73;10.95;;;12.40;99.90;;;;;;5035166;28;20033;-79
2022/06/25 10:03:51;;;;;;;15.35;12.25;;;12.30;99.90;;;;;;5040580;28;20033;-79
2022/06/25 10:06:21;;;;;;;16.98;11.38;;;12.20;99.90;;;;;;5034130;28;20415;-76
2022/06/25 10:09:02;;;;;;;16.08;10.63;;;12.10;99.90;;;;;;5049308;28;20064;-80
2022/06/25 10:11:31;;;;;;;20.50;12.48;;;12.00;99.90;;;;;;5035114;28;20028;-80
2022/06/25 10:13:59;;;;;;;18.42;13.10;;;11.90;99.90;;;;;;5026982;28;20033;-81
2022/06/25 10:16:29;;;;;;;22.52;15.60;;;11.80;99.90;;;;;;5029882;28;20423;-80
2022/06/25 10:18:56;;;;;;;23.98;13.80;;;11.70;99.90;;;;;;5031784;28;20750;-78
2022/06/25 10:21:26;;;;;;;17.83;12.20;;;11.70;99.90;;;;;;5031398;28;20044;-80
2022/06/25 10:24:04;;;;;;;23.48;14.38;;;11.60;99.90;;;;;;5030794;28;20029;-80
2022/06/25 10:26:35;;;;;;;22.92;13.85;;;11.50;99.90;;;;;;5027926;28;20037;-81
2022/06/25 10:29:04;;;;;;;22.35;13.93;;;11.40;99.90;;;;;;5034244;28;20055;-79
2022/06/25 10:31:31;;;;;;;23.52;15.15;;;11.40;99.90;;;;;;5030711;28;20041;-80
2022/06/25 10:34:03;;;;;;;21.33;15.05;;;11.30;99.90;;;;;;5032809;28;20064;-80
2022/06/25 10:36:49;;;;;;;24.75;16.65;;;11.20;99.90;;;;;;5032434;28;22949;-78
2022/06/25 10:39:28;;;;;;;21.52;15.07;;;11.10;99.90;;;;;;5030702;28;20033;-80
2022/06/25 10:45:06;;;;;;;17.77;12.70;;;11.10;99.90;;;;;;5030071;28;20040;-79
2022/06/25 10:47:52;;;;;;;16.27;10.77;;;11.00;99.90;;;;;;5030417;28;20033;-78
2022/06/25 10:50:22;;;;;;;;;;;11.00;99.90;;;;;;5034778;28;20366;-79
2022/06/25 10:53:07;;;;;;;22.17;12.88;;;11.00;99.90;;;;;;5031138;28;20346;-82
2022/06/25 10:55:41;;;;;;;21.10;14.10;;;11.00;99.90;;;;;;5031977;28;20112;-76
2022/06/25 10:58:13;;;;;;;19.05;13.07;;;11.00;99.90;;;;;;5031720;28;20041;-78
2022/06/25 11:00:50;;;;;;;16.90;12.82;;;10.90;99.90;;;;;;5029314;28;20110;-76
2022/06/25 11:03:28;;;;;;;12.90;10.38;;;10.80;99.90;;;;;;5032610;28;20033;-80
2022/06/25 11:05:58;;;;;;;16.60;10.55;;;10.70;99.90;;;;;;5031331;28;20478;-81
2022/06/25 11:08:37;;;;;;;14.85;10.60;;;10.70;99.90;;;;;;5036957;28;20033;-78
2022/06/25 11:11:05;;;;;;;18.73;14.88;;;10.60;99.90;;;;;;5029909;28;20028;-80
2022/06/25 11:13:33;;;;;;;19.13;14.63;;;10.50;99.90;;;;;;5032258;28;20040;-81
2022/06/25 11:16:11;;;;;;;24.42;14.68;;;10.50;99.90;;;;;;5030033;28;20033;-80
2022/06/25 11:18:47;;;;;;;22.77;15.48;;;10.40;99.90;;;;;;5030272;28;20025;-80
2022/06/25 11:21:36;;;;;;;20.08;14.60;;;10.30;99.90;;;;;;5029150;28;20037;-79
2022/06/25 11:24:11;;;;;;;23.33;16.60;;;10.30;99.90;;;;;;5030497;28;20033;-79
2022/06/25 11:29:35;;;;;;;22.85;16.83;;;10.20;99.90;;;;;;5032126;28;20048;-80
2022/06/25 11:32:04;;;;;;;20.45;15.35;;;10.20;99.90;;;;;;5036021;28;20424;-80
2022/06/25 11:34:31;;;;;;;22.50;14.25;;;10.30;99.90;;;;;;5054030;28;20029;-79
2022/06/25 11:37:18;;;;;;;22.38;15.77;;;10.30;99.90;;;;;;5037130;28;20033;-78
2022/06/25 11:39:47;;;;;;;18.38;13.35;;;10.30;99.90;;;;;;5029683;28;20483;-79
2022/06/25 11:42:16;;;;;;;20.15;14.48;;;10.20;99.90;;;;;;5038198;28;20057;-80
2022/06/25 11:44:54;;;;;;;19.92;14.60;;;10.20;99.90;;;;;;5034464;28;20128;-81
2022/06/25 11:47:22;;;;;;;19.67;14.30;;;10.10;99.90;;;;;;5032042;28;20018;-80
2022/06/25 11:49:52;;;;;;;25.40;18.52;;;10.00;99.90;;;;;;5025648;28;20049;-80
2022/06/25 11:52:21;;;;;;;42.10;29.55;;;10.00;99.90;;;;;;5029638;28;20294;-77
2022/06/25 11:54:51;;;;;;;44.40;32.20;;;10.00;99.90;;;;;;5031101;28;20037;-79
2022/06/25 11:57:39;;;;;;;39.38;27.88;;;9.90;99.90;;;;;;5044188;28;20114;-78
2022/06/25 12:00:13;;;;;;;22.67;17.48;;;9.90;99.90;;;;;;5032354;28;20099;-78
2022/06/25 12:02:43;;;;;;;28.25;19.63;;;9.80;99.90;;;;;;5031565;28;20083;-79
2022/06/25 12:05:11;;;;;;;17.60;11.63;;;9.80;99.90;;;;;;5033542;28;20030;-78
2022/06/25 12:07:38;;;;;;;14.85;10.13;;;9.70;99.90;;;;;;5032824;28;20029;-80
2022/06/25 12:10:13;;;;;;;14.30;10.50;;;9.60;99.90;;;;;;5042007;28;20024;-78
2022/06/25 12:12:44;;;;;;;15.98;11.18;;;9.50;99.90;;;;;;5034658;28;20467;-81
2022/06/25 12:15:11;;;;;;;21.05;15.65;;;9.40;99.90;;;;;;5043172;28;20386;-79
2022/06/25 12:17:40;;;;;;;19.35;14.32;;;9.40;99.90;;;;;;5037832;28;20029;-82
2022/06/25 12:20:12;;;;;;;16.33;12.00;;;9.40;99.90;;;;;;5038151;28;20052;-84
2022/06/25 12:22:42;;;;;;;16.17;11.82;;;9.40;99.90;;;;;;5039061;28;20040;-80
2022/06/25 12:25:12;;;;;;;14.10;11.52;;;9.30;99.90;;;;;;5039909;28;20033;-80
2022/06/25 12:27:50;;;;;;;21.00;14.48;;;9.40;99.90;;;;;;5037321;28;20116;-80
2022/06/25 12:30:32;;;;;;;16.92;12.82;;;9.40;99.90;;;;;;5045854;28;20029;-76
2022/06/25 12:33:13;;;;;;;18.08;11.93;;;9.30;99.90;;;;;;5049756;28;20379;-78
2022/06/25 12:35:42;;;;;;;14.85;11.80;;;9.30;99.90;;;;;;5033581;28;20038;-77
2022/06/25 12:38:11;;;;;;;20.17;12.85;;;9.20;99.90;;;;;;5040900;28;20104;-76
2022/06/25 12:40:44;;;;;;;18.48;11.35;;;9.10;99.90;;;;;;5039895;28;20168;-79
2022/06/25 12:43:13;;;;;;;18.60;11.50;;;9.10;99.90;;;;;;5036799;28;20033;-76
2022/06/25 12:45:44;;;;;;;18.40;11.57;;;9.00;99.90;;;;;;5050664;28;20036;-77
2022/06/25 12:48:13;;;;;;;19.02;13.05;;;9.00;99.90;;;;;;5042803;28;20453;-78
2022/06/25 12:50:45;;;;;;;17.77;10.95;;;8.90;99.90;;;;;;5049989;28;20041;-79
2022/06/25 12:53:15;;;;;;;18.55;11.90;;;8.90;99.90;;;;;;5033378;28;20664;-78
2022/06/25 12:55:50;;;;;;;19.15;13.48;;;8.90;99.90;;;;;;5049561;28;20119;-81
2022/06/25 12:58:18;;;;;;;17.77;12.57;;;8.90;99.90;;;;;;5056488;28;20115;-79
2022/06/25 13:00:46;;;;;;;20.95;14.00;;;8.80;99.90;;;;;;5052646;28;20041;-79
2022/06/25 13:03:14;;;;;;;23.60;15.43;;;8.80;99.90;;;;;;5038429;28;20030;-76
2022/06/25 13:05:41;;;;;;;20.17;12.13;;;8.80;99.90;;;;;;5029655;28;20348;-78
2022/06/25 13:08:08;;;;;;;20.38;12.52;;;8.80;99.90;;;;;;5045538;28;20034;-77